Terminal Aerodrome Forecast
Issued by NWS Twin Cities, MN

Home | Current Version | Previous Version | Graphics & Text | Print | Product List | Glossary On
Versions: 1 2 3 4 5 6 7 8 9 10 11 12 13 14 15 16 17 18
054
FTUS43 KMPX 250520
TAFSTC
TAF
KSTC 250520Z 2506/2606 14010KT 6SM -SHRA VCTS OVC010CB
      TEMPO 2506/2509 4SM TSRA BR OVC008CB
     FM251100 20007KT P6SM OVC015
     FM251300 23012KT P6SM SCT020 BKN050
     FM251500 25013G20KT P6SM OVC035
     FM251800 28020G29KT P6SM VCSH OVC025
     FM260000 28015G23KT P6SM -RA OVC050=

USA.gov is the U.S. government's official web portal to all federal, state and local government web resources and services.